createdAt,value
2024-01-07T00:00:08.432Z,2.58
2024-01-07T00:02:38.643Z,2.25
2024-01-07T00:05:06.897Z,2.60
2024-01-07T00:07:34.617Z,2.70
2024-01-07T00:10:04.932Z,3.05
2024-01-07T00:12:35.116Z,3.22
2024-01-07T00:15:03.152Z,3.72
2024-01-07T00:17:34.580Z,3.28
2024-01-07T00:20:02.274Z,3.30
2024-01-07T00:22:29.975Z,4.68
2024-01-07T00:24:57.928Z,2.80
2024-01-07T00:27:25.716Z,3.47
2024-01-07T00:29:53.427Z,4.07
2024-01-07T00:32:23.862Z,4.20
2024-01-07T00:34:55.863Z,4.47
2024-01-07T00:37:24.052Z,3.60
2024-01-07T00:39:52.598Z,3.78
2024-01-07T00:42:20.331Z,3.13
2024-01-07T00:44:51.267Z,2.83
2024-01-07T00:47:19.046Z,3.60
2024-01-07T00:49:46.713Z,4.25
2024-01-07T00:52:15.880Z,3.10
2024-01-07T00:54:43.763Z,2.88
2024-01-07T00:57:12.464Z,2.90
2024-01-07T00:59:40.230Z,3.97
2024-01-07T01:02:08.014Z,5.25
2024-01-07T01:04:35.779Z,3.67
2024-01-07T01:07:03.572Z,2.95
2024-01-07T01:09:32.728Z,3.45
2024-01-07T01:12:00.422Z,3.22
2024-01-07T01:14:30.557Z,5.70
2024-01-07T01:16:58.302Z,3.08
2024-01-07T01:19:26.317Z,2.60
2024-01-07T01:21:54.353Z,3.38
2024-01-07T01:24:22.184Z,3.28
2024-01-07T01:26:51.228Z,4.03
2024-01-07T01:29:21.215Z,3.47
2024-01-07T01:31:49.046Z,2.75
2024-01-07T01:34:17.067Z,2.72
2024-01-07T01:36:44.859Z,3.83
2024-01-07T01:39:12.524Z,3.50
2024-01-07T01:41:40.660Z,3.80
2024-01-07T01:44:09.734Z,3.42
2024-01-07T01:46:37.639Z,3.28
2024-01-07T01:49:05.483Z,4.53
2024-01-07T01:51:35.683Z,3.42
2024-01-07T01:54:06.434Z,3.45
2024-01-07T01:56:36.606Z,3.60
2024-01-07T01:59:04.638Z,3.78
2024-01-07T02:01:34.044Z,3.25
2024-01-07T02:04:01.897Z,2.97
2024-01-07T02:06:29.846Z,3.30
2024-01-07T02:08:57.745Z,3.60
2024-01-07T02:11:25.412Z,3.45
2024-01-07T02:13:53.091Z,4.32
2024-01-07T02:16:20.922Z,4.03
2024-01-07T02:18:50.127Z,3.40
2024-01-07T02:21:17.911Z,3.55
2024-01-07T02:23:45.643Z,3.55
2024-01-07T02:26:14.678Z,3.78
2024-01-07T02:28:42.390Z,3.10
2024-01-07T02:31:10.109Z,3.10
2024-01-07T02:33:40.200Z,2.95
2024-01-07T02:36:08.121Z,4.13
2024-01-07T02:38:35.758Z,2.80
2024-01-07T02:41:06.206Z,3.00
2024-01-07T02:43:37.599Z,2.80
2024-01-07T02:46:07.670Z,2.83
2024-01-07T02:48:35.486Z,3.42
2024-01-07T02:51:04.593Z,3.95
2024-01-07T02:53:32.316Z,3.25
2024-01-07T02:55:59.979Z,3.10
2024-01-07T02:58:30.076Z,4.03
2024-01-07T03:00:59.301Z,2.97
2024-01-07T03:03:29.622Z,3.75
2024-01-07T03:05:57.461Z,3.05
2024-01-07T03:08:25.251Z,3.72
2024-01-07T03:10:53.443Z,3.20
2024-01-07T03:13:21.141Z,2.58
2024-01-07T03:15:51.249Z,2.53
2024-01-07T03:18:20.410Z,3.83
2024-01-07T03:20:48.053Z,3.95
2024-01-07T03:23:19.865Z,3.47
2024-01-07T03:25:47.551Z,3.67
2024-01-07T03:28:15.278Z,3.88
2024-01-07T03:30:43.222Z,3.40
2024-01-07T03:33:13.416Z,3.28
2024-01-07T03:35:42.595Z,2.58
2024-01-07T03:38:10.256Z,2.83
2024-01-07T03:40:37.941Z,2.90
2024-01-07T03:43:05.809Z,3.42
2024-01-07T03:45:33.630Z,2.75
2024-01-07T03:48:01.418Z,4.03
2024-01-07T03:50:31.318Z,2.67
2024-01-07T03:53:00.366Z,3.45
2024-01-07T03:55:30.346Z,3.85
2024-01-07T03:58:00.644Z,3.00
2024-01-07T04:00:28.409Z,2.33
2024-01-07T04:02:56.202Z,2.50
2024-01-07T04:05:23.964Z,2.63
2024-01-07T04:07:51.647Z,3.20
2024-01-07T04:10:20.925Z,4.10
2024-01-07T04:12:48.658Z,2.72
2024-01-07T04:15:18.687Z,2.97
2024-01-07T04:17:46.735Z,3.08
2024-01-07T04:20:14.988Z,8.13
2024-01-07T04:22:42.748Z,3.10
2024-01-07T04:25:12.926Z,2.97
2024-01-07T04:27:42.087Z,3.78
2024-01-07T04:30:10.435Z,3.45
2024-01-07T04:32:40.678Z,2.65
2024-01-07T04:35:08.755Z,3.47
2024-01-07T04:37:37.167Z,3.20
2024-01-07T04:40:08.131Z,4.00
2024-01-07T04:42:36.490Z,3.20
2024-01-07T04:45:05.956Z,4.28
2024-01-07T04:47:35.919Z,3.30
2024-01-07T04:50:07.150Z,3.72
2024-01-07T04:52:34.883Z,4.40
2024-01-07T04:55:02.689Z,2.90
2024-01-07T04:57:32.934Z,2.95
2024-01-07T05:00:00.683Z,5.80
2024-01-07T05:02:29.832Z,3.47
2024-01-07T05:05:00.054Z,2.88
2024-01-07T05:07:27.875Z,3.88
2024-01-07T05:09:55.697Z,4.15
2024-01-07T05:12:26.494Z,2.92
2024-01-07T05:14:54.472Z,2.88
2024-01-07T05:17:22.124Z,3.95
2024-01-07T05:19:51.340Z,4.57
2024-01-07T05:22:19.087Z,3.40
2024-01-07T05:24:46.857Z,4.25
2024-01-07T05:27:14.698Z,4.07
2024-01-07T05:29:46.561Z,4.88
2024-01-07T05:32:14.322Z,3.92
2024-01-07T05:34:41.990Z,3.50
2024-01-07T05:37:11.204Z,4.15
2024-01-07T05:39:38.935Z,8.65
2024-01-07T05:42:06.710Z,7.75
2024-01-07T05:44:34.413Z,6.55
2024-01-07T05:47:05.233Z,5.60
2024-01-07T05:49:34.139Z,3.08
2024-01-07T05:52:04.400Z,4.72
2024-01-07T05:54:33.661Z,5.05
2024-01-07T05:57:01.426Z,5.43
2024-01-07T05:59:29.121Z,3.92
2024-01-07T06:02:00.348Z,4.03
2024-01-07T06:04:28.333Z,7.22
2024-01-07T06:06:56.198Z,10.63
2024-01-07T06:09:27.801Z,7.80
2024-01-07T06:11:57.305Z,4.18
2024-01-07T06:14:25.824Z,4.10
2024-01-07T06:16:53.560Z,3.97
2024-01-07T06:19:21.422Z,3.95
2024-01-07T06:21:49.221Z,3.78
2024-01-07T06:24:17.162Z,3.72
2024-01-07T06:26:44.961Z,5.95
2024-01-07T06:29:14.097Z,3.92
2024-01-07T06:31:45.228Z,5.50
2024-01-07T06:34:16.331Z,4.32
2024-01-07T06:36:44.346Z,4.00
2024-01-07T06:39:14.722Z,8.40
2024-01-07T06:41:42.482Z,13.40
2024-01-07T06:44:10.220Z,9.57
2024-01-07T06:46:39.284Z,8.98
2024-01-07T06:49:06.953Z,4.15
2024-01-07T06:51:34.718Z,3.88
2024-01-07T06:54:04.489Z,6.97
2024-01-07T06:56:32.171Z,6.30
2024-01-07T06:58:59.876Z,6.60
2024-01-07T07:01:27.632Z,6.70
2024-01-07T07:03:56.840Z,6.07
2024-01-07T07:06:25.387Z,6.13
2024-01-07T07:08:53.035Z,4.07
2024-01-07T07:11:20.830Z,4.03
2024-01-07T07:13:48.721Z,2.60
2024-01-07T07:16:19.883Z,2.67
2024-01-07T07:18:49.995Z,4.60
2024-01-07T07:21:19.180Z,2.75
2024-01-07T07:23:46.869Z,2.58
2024-01-07T07:26:14.512Z,2.20
2024-01-07T07:28:42.147Z,3.35
2024-01-07T07:31:09.942Z,3.42
2024-01-07T07:33:40.721Z,3.30
2024-01-07T07:36:08.799Z,2.40
2024-01-07T07:38:37.862Z,3.17
2024-01-07T07:41:08.796Z,3.45
2024-01-07T07:43:36.538Z,3.28
2024-01-07T07:46:04.585Z,3.33
2024-01-07T07:48:32.406Z,2.35
2024-01-07T07:51:02.374Z,4.53
2024-01-07T07:53:32.392Z,5.28
2024-01-07T07:56:01.461Z,7.15
2024-01-07T07:58:29.161Z,9.32
2024-01-07T08:00:56.932Z,12.10
2024-01-07T08:03:24.706Z,15.20
2024-01-07T08:05:52.563Z,16.70
2024-01-07T08:08:22.449Z,20.65
2024-01-07T08:10:52.228Z,16.63
2024-01-07T08:13:23.685Z,17.25
2024-01-07T08:15:51.442Z,13.80
2024-01-07T08:18:19.310Z,6.43
2024-01-07T08:20:47.208Z,5.85
2024-01-07T08:23:14.906Z,7.95
2024-01-07T08:25:42.974Z,6.22
2024-01-07T08:28:11.719Z,3.97
2024-01-07T08:30:41.006Z,4.88
2024-01-07T08:33:08.834Z,5.03
2024-01-07T08:35:36.636Z,3.47
2024-01-07T08:38:04.581Z,3.95
2024-01-07T08:40:32.294Z,3.85
2024-01-07T08:43:00.028Z,5.10
2024-01-07T08:45:31.179Z,4.38
2024-01-07T08:48:00.428Z,3.78
2024-01-07T08:50:28.200Z,4.32
2024-01-07T08:52:55.960Z,3.58
2024-01-07T08:55:23.673Z,3.15
2024-01-07T08:57:51.453Z,3.50
2024-01-07T09:00:19.865Z,4.18
2024-01-07T09:02:50.115Z,3.70
2024-01-07T09:05:21.502Z,4.63
2024-01-07T09:07:49.289Z,3.15
2024-01-07T09:10:20.179Z,4.43
2024-01-07T09:12:51.254Z,3.83
2024-01-07T09:15:21.622Z,4.07
2024-01-07T09:17:49.527Z,3.83
2024-01-07T09:20:17.233Z,4.07
2024-01-07T09:22:46.269Z,3.58
2024-01-07T09:25:16.204Z,3.22
2024-01-07T09:27:44.855Z,3.72
2024-01-07T09:30:15.721Z,3.05
2024-01-07T09:32:43.976Z,3.30
2024-01-07T09:35:11.939Z,4.90
2024-01-07T09:37:39.668Z,3.85
2024-01-07T09:40:09.594Z,3.00
2024-01-07T09:42:39.834Z,4.45
2024-01-07T09:45:13.174Z,4.60
2024-01-07T09:47:42.018Z,2.95
2024-01-07T09:50:12.500Z,3.30
2024-01-07T09:52:40.656Z,3.08
2024-01-07T09:55:14.930Z,2.53
2024-01-07T09:57:46.390Z,4.30
2024-01-07T10:00:15.531Z,4.28
2024-01-07T10:02:43.416Z,4.72
2024-01-07T10:05:13.203Z,4.03
2024-01-07T10:07:43.247Z,3.38
2024-01-07T10:10:17.087Z,5.25
2024-01-07T10:12:48.090Z,3.55
2024-01-07T10:15:16.170Z,2.95
2024-01-07T10:17:44.630Z,3.83
2024-01-07T10:20:12.813Z,3.58
2024-01-07T10:22:40.690Z,4.25
2024-01-07T10:25:09.098Z,4.38
2024-01-07T10:27:39.349Z,7.10
2024-01-07T10:30:07.965Z,3.90
2024-01-07T10:32:37.347Z,3.83
2024-01-07T10:35:06.046Z,5.50
2024-01-07T10:37:36.148Z,3.25
2024-01-07T10:40:05.195Z,4.75
2024-01-07T10:42:33.494Z,3.70
2024-01-07T10:45:05.556Z,4.15
2024-01-07T10:47:36.623Z,3.05
2024-01-07T10:50:04.893Z,3.83
2024-01-07T10:52:34.948Z,3.65
2024-01-07T10:55:11.100Z,3.10
2024-01-07T10:57:44.532Z,3.33
2024-01-07T11:00:20.095Z,44.47
2024-01-07T11:03:10.375Z,71.95
2024-01-07T11:05:41.531Z,12.38
2024-01-07T11:08:14.062Z,13.32
2024-01-07T11:10:52.294Z,10.57
2024-01-07T11:13:33.800Z,11.25
2024-01-07T11:16:03.719Z,8.07
2024-01-07T11:18:35.014Z,5.80
2024-01-07T11:21:03.586Z,7.90
2024-01-07T11:23:32.227Z,5.32
2024-01-07T11:26:00.220Z,5.63
2024-01-07T11:28:46.520Z,4.32
2024-01-07T11:31:19.346Z,4.43
2024-01-07T11:33:48.170Z,4.57
2024-01-07T11:36:17.129Z,4.03
2024-01-07T11:38:45.171Z,4.15
2024-01-07T11:41:14.131Z,4.47
2024-01-07T11:43:54.485Z,5.90
2024-01-07T11:46:26.087Z,3.65
2024-01-07T11:48:59.320Z,6.43
2024-01-07T11:51:27.521Z,7.68
2024-01-07T11:53:55.433Z,4.50
2024-01-07T11:56:23.278Z,4.50
2024-01-07T11:58:51.344Z,4.75
2024-01-07T12:01:19.518Z,4.70
2024-01-07T12:03:48.793Z,4.22
2024-01-07T12:06:17.157Z,4.18
2024-01-07T12:08:45.267Z,5.88
2024-01-07T12:11:14.181Z,6.70
2024-01-07T12:13:42.062Z,5.15
2024-01-07T12:16:10.538Z,4.57
2024-01-07T12:18:39.218Z,4.30
2024-01-07T12:21:08.845Z,3.85
2024-01-07T12:23:41.662Z,4.72
2024-01-07T12:26:11.795Z,6.28
2024-01-07T12:28:40.166Z,3.00
2024-01-07T12:31:08.749Z,4.22
2024-01-07T12:33:39.883Z,7.65
2024-01-07T12:36:09.537Z,4.25
2024-01-07T12:38:38.881Z,2.83
2024-01-07T12:41:06.870Z,3.40
2024-01-07T12:43:34.671Z,4.50
2024-01-07T12:46:07.001Z,3.25
2024-01-07T12:48:35.272Z,4.57
2024-01-07T12:51:03.726Z,3.88
2024-01-07T12:53:32.760Z,4.03
2024-01-07T12:56:00.700Z,3.67
2024-01-07T12:58:28.536Z,5.03
2024-01-07T13:00:56.304Z,3.80
2024-01-07T13:03:25.937Z,3.83
2024-01-07T13:05:53.845Z,4.32
2024-01-07T13:08:23.531Z,4.50
2024-01-07T13:10:55.733Z,5.82
2024-01-07T13:13:23.573Z,5.97
2024-01-07T13:15:52.184Z,2.72
2024-01-07T13:18:22.150Z,3.17
2024-01-07T13:20:49.918Z,4.95
2024-01-07T13:23:17.669Z,2.92
2024-01-07T13:25:45.636Z,5.07
2024-01-07T13:28:17.442Z,3.75
2024-01-07T13:30:48.305Z,6.43
2024-01-07T13:33:18.946Z,6.82
2024-01-07T13:35:49.040Z,5.80
2024-01-07T13:38:16.708Z,4.90
2024-01-07T13:40:44.544Z,5.13
2024-01-07T13:43:12.400Z,6.93
2024-01-07T13:45:42.148Z,3.65
2024-01-07T13:48:12.245Z,5.15
2024-01-07T13:50:40.007Z,6.20
2024-01-07T13:53:10.075Z,7.07
2024-01-07T13:55:37.797Z,3.22
2024-01-07T13:58:05.702Z,3.83
2024-01-07T14:00:33.537Z,4.15
2024-01-07T14:03:05.648Z,3.88
2024-01-07T14:05:33.407Z,4.30
2024-01-07T14:08:03.590Z,4.20
2024-01-07T14:10:31.459Z,3.97
2024-01-07T14:12:59.439Z,3.10
2024-01-07T14:15:27.153Z,3.80
2024-01-07T14:17:54.929Z,4.68
2024-01-07T14:20:24.059Z,4.35
2024-01-07T14:22:51.818Z,3.42
2024-01-07T14:25:22.107Z,3.45
2024-01-07T14:27:50.016Z,2.58
2024-01-07T14:30:20.178Z,3.92
2024-01-07T14:32:47.925Z,3.35
2024-01-07T14:35:15.846Z,2.42
2024-01-07T14:37:47.005Z,2.70
2024-01-07T14:40:14.878Z,2.97
2024-01-07T14:42:42.783Z,4.15
2024-01-07T14:45:13.752Z,6.25
2024-01-07T14:47:41.616Z,2.88
2024-01-07T14:50:09.780Z,3.88
2024-01-07T14:52:37.462Z,2.92
2024-01-07T14:55:09.276Z,3.25
2024-01-07T14:57:37.094Z,5.03
2024-01-07T15:00:06.330Z,5.15
2024-01-07T15:02:34.161Z,3.75
2024-01-07T15:05:02.039Z,5.10
2024-01-07T15:07:29.914Z,4.20
2024-01-07T15:09:57.750Z,4.88
2024-01-07T15:12:30.997Z,4.35
2024-01-07T15:15:01.003Z,3.13
2024-01-07T15:17:28.776Z,3.33
2024-01-07T15:19:58.848Z,4.05
2024-01-07T15:22:26.623Z,4.13
2024-01-07T15:24:56.601Z,5.55
2024-01-07T15:27:24.337Z,2.85
2024-01-07T15:29:55.720Z,3.47
2024-01-07T15:32:23.484Z,4.15
2024-01-07T15:34:53.847Z,4.70
2024-01-07T15:37:23.799Z,4.13
2024-01-07T15:39:52.629Z,4.15
2024-01-07T15:42:20.374Z,5.82
2024-01-07T15:44:48.090Z,3.17
2024-01-07T15:47:17.376Z,3.58
2024-01-07T15:49:47.205Z,4.95
2024-01-07T15:52:15.058Z,4.18
2024-01-07T15:54:42.901Z,3.78
2024-01-07T15:57:10.651Z,4.35
2024-01-07T15:59:42.488Z,4.88
2024-01-07T16:02:10.315Z,4.43
2024-01-07T16:04:39.466Z,5.13
2024-01-07T16:07:08.281Z,5.43
2024-01-07T16:09:44.241Z,6.88
2024-01-07T16:12:15.021Z,7.93
2024-01-07T16:14:43.591Z,4.97
2024-01-07T16:17:11.313Z,6.50
2024-01-07T16:19:43.086Z,5.03
2024-01-07T16:22:14.781Z,4.22
2024-01-07T16:24:42.978Z,4.55
2024-01-07T16:27:10.976Z,4.38
2024-01-07T16:29:45.411Z,3.20
2024-01-07T16:32:14.692Z,5.32
2024-01-07T16:34:44.097Z,3.53
2024-01-07T16:37:14.100Z,4.38
2024-01-07T16:39:44.875Z,3.97
2024-01-07T16:42:14.888Z,2.50
2024-01-07T16:44:42.592Z,4.40
2024-01-07T16:47:14.773Z,5.22
2024-01-07T16:52:15.333Z,5.53
2024-01-07T16:54:43.263Z,3.72
2024-01-07T16:57:11.015Z,4.32
2024-01-07T16:59:38.783Z,3.38
2024-01-07T17:02:08.610Z,5.63
2024-01-07T17:04:38.721Z,4.70
2024-01-07T17:07:07.910Z,3.15
2024-01-07T17:09:35.850Z,5.68
2024-01-07T17:12:03.609Z,5.75
2024-01-07T17:14:33.618Z,6.00
2024-01-07T17:17:01.425Z,5.25
2024-01-07T17:19:31.482Z,5.80
2024-01-07T17:21:59.190Z,5.38
2024-01-07T17:24:28.267Z,5.15
2024-01-07T17:26:57.492Z,6.10
2024-01-07T17:29:26.462Z,4.88
2024-01-07T17:31:54.366Z,15.70
2024-01-07T17:34:22.167Z,9.55
2024-01-07T17:36:52.624Z,7.13
2024-01-07T17:39:22.999Z,5.65
2024-01-07T17:41:54.411Z,4.25
2024-01-07T17:44:24.192Z,8.65
2024-01-07T17:46:51.983Z,5.13
2024-01-07T17:49:19.731Z,4.72
2024-01-07T17:51:47.731Z,5.80
2024-01-07T17:54:15.421Z,4.45
2024-01-07T17:56:44.452Z,4.20
2024-01-07T17:59:16.910Z,3.70
2024-01-07T18:01:47.025Z,4.07
2024-01-07T18:04:14.825Z,5.20
2024-01-07T18:06:42.510Z,4.85
2024-01-07T18:09:12.021Z,3.45
2024-01-07T18:11:40.588Z,5.90
2024-01-07T18:14:10.650Z,6.13
2024-01-07T18:16:40.230Z,8.23
2024-01-07T18:19:08.344Z,11.82
2024-01-07T18:21:36.233Z,20.42
2024-01-07T18:24:04.001Z,9.55
2024-01-07T18:26:34.093Z,10.65
2024-01-07T18:29:01.922Z,12.50
2024-01-07T18:31:29.694Z,11.57
2024-01-07T18:34:01.245Z,7.00
2024-01-07T18:36:31.538Z,5.03
2024-01-07T18:38:59.310Z,9.18
2024-01-07T18:41:29.499Z,6.70
2024-01-07T18:43:57.328Z,4.35
2024-01-07T18:46:25.129Z,7.35
2024-01-07T18:48:53.053Z,5.95
2024-01-07T18:51:22.249Z,6.70
2024-01-07T18:53:53.037Z,8.05
2024-01-07T18:56:23.579Z,5.25
2024-01-07T18:58:54.160Z,4.85
2024-01-07T19:01:21.909Z,5.10
2024-01-07T19:03:49.692Z,4.18
2024-01-07T19:06:17.457Z,7.25
2024-01-07T19:08:46.540Z,6.18
2024-01-07T19:11:14.305Z,8.45
2024-01-07T19:13:44.378Z,6.63
2024-01-07T19:16:12.189Z,4.75
2024-01-07T19:18:40.059Z,6.25
2024-01-07T19:21:11.219Z,5.65
2024-01-07T19:23:40.825Z,6.85
2024-01-07T19:26:09.997Z,5.88
2024-01-07T19:28:37.884Z,7.97
2024-01-07T19:31:06.863Z,5.28
2024-01-07T19:33:37.244Z,6.82
2024-01-07T19:36:05.245Z,7.28
2024-01-07T19:38:33.116Z,4.95
2024-01-07T19:41:03.985Z,5.13
2024-01-07T19:43:36.841Z,4.70
2024-01-07T19:46:04.818Z,6.32
2024-01-07T19:48:32.667Z,5.50
2024-01-07T19:51:00.448Z,6.47
2024-01-07T19:53:31.459Z,6.53
2024-01-07T19:56:03.395Z,5.95
2024-01-07T19:58:31.636Z,5.57
2024-01-07T20:01:00.752Z,5.05
2024-01-07T20:03:28.489Z,6.90
2024-01-07T20:05:56.452Z,7.22
2024-01-07T20:08:24.467Z,6.10
2024-01-07T20:10:53.776Z,7.07
2024-01-07T20:13:23.694Z,6.90
2024-01-07T20:15:54.196Z,5.88
2024-01-07T20:18:23.401Z,5.18
2024-01-07T20:20:53.638Z,6.18
2024-01-07T20:23:21.495Z,5.07
2024-01-07T20:25:49.414Z,7.40
2024-01-07T20:28:17.153Z,7.80
2024-01-07T20:30:45.417Z,7.85
2024-01-07T20:33:16.655Z,6.22
2024-01-07T20:35:48.211Z,7.97
2024-01-07T20:38:16.399Z,8.73
2024-01-07T20:40:44.245Z,8.70
2024-01-07T20:43:12.012Z,7.70
2024-01-07T20:45:40.018Z,5.95
2024-01-07T20:48:08.256Z,8.80
2024-01-07T20:50:38.300Z,8.15
2024-01-07T20:53:07.678Z,8.43
2024-01-07T20:55:35.495Z,11.00
2024-01-07T20:58:04.084Z,9.98
2024-01-07T21:00:32.003Z,8.10
2024-01-07T21:03:02.806Z,8.70
2024-01-07T21:05:30.732Z,8.90
2024-01-07T21:08:08.275Z,8.02
2024-01-07T21:10:37.571Z,7.03
2024-01-07T21:13:05.612Z,10.95
2024-01-07T21:15:35.375Z,10.32
2024-01-07T21:18:03.368Z,5.50
2024-01-07T21:20:31.612Z,7.47
2024-01-07T21:22:59.957Z,7.65
2024-01-07T21:25:31.732Z,9.23
2024-01-07T21:28:05.098Z,8.70
2024-01-07T21:30:32.863Z,7.68
2024-01-07T21:33:00.798Z,8.73
2024-01-07T21:35:31.232Z,5.68
2024-01-07T21:37:59.870Z,8.98
2024-01-07T21:40:29.036Z,8.50
2024-01-07T21:42:56.721Z,9.90
2024-01-07T21:45:26.548Z,10.85
2024-01-07T21:47:54.351Z,11.05
2024-01-07T21:50:22.420Z,10.23
2024-01-07T21:52:54.808Z,6.50
2024-01-07T21:55:23.042Z,6.32
2024-01-07T21:57:52.111Z,9.35
2024-01-07T22:00:20.166Z,10.27
2024-01-07T22:02:50.596Z,7.60
2024-01-07T22:05:19.597Z,7.60
2024-01-07T22:07:47.420Z,7.07
2024-01-07T22:10:15.214Z,8.70
2024-01-07T22:12:43.415Z,8.70
2024-01-07T22:15:12.711Z,8.88
2024-01-07T22:17:40.588Z,9.85
2024-01-07T22:20:09.612Z,10.38
2024-01-07T22:22:37.488Z,9.85
2024-01-07T22:25:05.995Z,8.88
2024-01-07T22:27:34.839Z,8.32
2024-01-07T22:30:02.620Z,9.57
2024-01-07T22:32:31.884Z,9.38
2024-01-07T22:35:02.019Z,7.15
2024-01-07T22:37:29.806Z,8.90
2024-01-07T22:39:57.462Z,8.20
2024-01-07T22:42:25.167Z,9.68
2024-01-07T22:44:52.874Z,9.40
2024-01-07T22:47:22.941Z,8.98
2024-01-07T22:49:52.082Z,9.50
2024-01-07T22:52:24.780Z,10.82
2024-01-07T22:54:53.120Z,10.05
2024-01-07T22:57:20.844Z,10.48
2024-01-07T22:59:48.588Z,9.45
2024-01-07T23:02:16.656Z,14.82
2024-01-07T23:04:47.850Z,10.40
2024-01-07T23:07:16.974Z,11.10
2024-01-07T23:09:44.739Z,12.73
2024-01-07T23:12:14.473Z,12.32
2024-01-07T23:14:42.193Z,10.60
2024-01-07T23:17:12.223Z,9.60
2024-01-07T23:19:40.056Z,11.80
2024-01-07T23:22:10.170Z,11.35
2024-01-07T23:24:41.237Z,13.25
2024-01-07T23:27:09.013Z,10.65
2024-01-07T23:29:38.847Z,10.48
2024-01-07T23:32:07.227Z,12.20
2024-01-07T23:34:38.636Z,8.50
2024-01-07T23:37:08.620Z,10.70
2024-01-07T23:39:38.492Z,9.32
2024-01-07T23:42:10.201Z,12.02
2024-01-07T23:44:37.978Z,11.43
2024-01-07T23:47:08.036Z,11.07
2024-01-07T23:49:38.775Z,12.18
2024-01-07T23:52:06.952Z,11.52
2024-01-07T23:54:34.684Z,10.40
2024-01-07T23:57:02.352Z,10.38
2024-01-07T23:59:33.834Z,11.25
